Аэропорт: Хабаровск-Новый. Хабаровск

ICAO: UHHH

METAR:
2019/05/26 14:00
UHHH 261400Z 01006MPS CAVOK 14/08 Q1009 R05R/090060 NOSIG RMK QFE750/1001
METAR:
2019/05/26 12:21
TAF TAF UHHH 261045Z 2612/2718 03005MPS 9999 SCT020CB 
      TEMPO 2616/2703 07010MPS 2000 SHRA BR SCT006 BKN020CB